< < Back
Terminal Aerodrome Forecast


Current Version              Previous Versions:   1  2  3  4  5  6  7  8  9  

Terminal Aerodrome Forecast

334
FTUS42 KJAX 312341
TAFGNV
TAF
KGNV 312341Z 0100/0124 24010KT P6SM SCT050 BKN200
     FM010800 24006KT P6SM SCT004 BKN008
     FM011400 27010G18KT P6SM SCT020 BKN035=

Latest METAR

919
SAUS70 KWBC 010400 RRJ
MTRGNV
METAR KGNV 010353Z AUTO 24011KT 10SM CLR 19/17 A3009 RMK AO2 SLP186
T01890172


USA.gov is the U.S. government's official web portal to all federal, state and local government web resources and services.